Time;durP1;ratioP1;P1;durP2;ratioP2;P2;SDS_P1;SDS_P2;PMS_P1;PMS_P2;Temp;Humidity;BMP_temperature;BMP_pressure;BME280_temperature;BME280_humidity;BME280_pressure;Samples;Min_cycle;Max_cycle;Signal;HPM_P1;HPM_P2
2021/05/29 00:00:06;;;;;;;18.37;16.47;;;;;;;;;;5054450;28;20167;-81
2021/05/29 00:02:31;;;;;;;18.43;15.97;;;;;;;;;;5054866;28;20531;-81
2021/05/29 00:04:56;;;;;;;17.97;16.03;;;;;;;;;;5054637;28;20175;-81
2021/05/29 00:07:21;;;;;;;17.50;15.60;;;;;;;;;;5053716;28;20622;-81
2021/05/29 00:09:47;;;;;;;17.20;15.40;;;;;;;;;;5053568;28;20176;-81
2021/05/29 00:12:14;;;;;;;17.90;16.00;;;;;;;;;;5054549;28;20692;-81
2021/05/29 00:14:40;;;;;;;18.20;15.70;;;;;;;;;;5054296;28;20263;-81
2021/05/29 00:17:06;;;;;;;16.53;14.77;;;;;;;;;;5054516;28;20233;-81
2021/05/29 00:19:31;;;;;;;17.27;15.37;;;;;;;;;;5054470;28;20176;-81
2021/05/29 00:21:57;;;;;;;17.93;15.20;;;;;;;;;;5053834;28;20172;-81
2021/05/29 00:24:22;;;;;;;16.50;14.70;;;;;;;;;;5053740;28;20175;-81
2021/05/29 00:26:48;;;;;;;18.20;14.63;;;;;;;;;;5054206;28;20200;-80
2021/05/29 00:29:13;;;;;;;16.90;15.10;;;;;;;;;;5053997;28;20176;-80
2021/05/29 00:31:38;;;;;;;16.77;15.03;;;;;;;;;;5054552;28;20182;-81
2021/05/29 00:34:04;;;;;;;16.63;14.80;;;;;;;;;;5054082;28;20214;-81
2021/05/29 00:36:29;;;;;;;16.37;13.97;;;;;;;;;;5054084;28;20178;-81
2021/05/29 00:38:54;;;;;;;16.50;13.93;;;;;;;;;;5053576;28;20168;-81
2021/05/29 00:41:20;;;;;;;17.03;15.07;;;;;;;;;;5054416;28;20168;-81
2021/05/29 00:43:46;;;;;;;16.03;14.33;;;;;;;;;;5053843;28;20171;-81
2021/05/29 00:46:11;;;;;;;16.13;14.53;;;;;;;;;;5053645;28;20239;-81
2021/05/29 00:48:38;;;;;;;16.80;15.10;;;;;;;;;;5052513;28;20175;-81
2021/05/29 00:51:04;;;;;;;17.73;15.37;;;;;;;;;;5053766;28;20175;-81
2021/05/29 00:53:30;;;;;;;18.43;15.63;;;;;;;;;;5053806;28;20176;-81
2021/05/29 00:55:56;;;;;;;18.00;15.50;;;;;;;;;;5054086;28;20183;-81
2021/05/29 00:58:22;;;;;;;19.10;16.10;;;;;;;;;;5053639;28;20187;-80
2021/05/29 01:00:48;;;;;;;16.37;14.67;;;;;;;;;;5053639;28;20179;-80
2021/05/29 01:03:13;;;;;;;15.80;14.20;;;;;;;;;;5053604;28;20657;-80
2021/05/29 01:05:39;;;;;;;15.57;13.97;;;;;;;;;;5053611;28;20538;-80
2021/05/29 01:08:04;;;;;;;16.13;14.43;;;;;;;;;;5054495;28;20295;-80
2021/05/29 01:10:29;;;;;;;14.87;13.40;;;;;;;;;;5058287;28;20176;-80
2021/05/29 01:12:57;;;;;;;15.97;14.27;;;;;;;;;;5057730;28;20559;-80
2021/05/29 01:15:23;;;;;;;14.77;13.27;;;;;;;;;;5057861;28;20199;-80
2021/05/29 01:17:48;;;;;;;16.07;14.37;;;;;;;;;;5058019;28;20211;-80
2021/05/29 01:20:14;;;;;;;15.60;14.00;;;;;;;;;;5057199;28;20170;-80
2021/05/29 01:22:48;;;;;;;15.77;14.17;;;;;;;;;;5057447;28;20179;-81
2021/05/29 01:25:25;;;;;;;15.83;14.20;;;;;;;;;;5057352;28;20176;-81
2021/05/29 01:27:54;;;;;;;15.30;13.80;;;;;;;;;;5057668;28;20199;-80
2021/05/29 01:30:19;;;;;;;15.53;13.93;;;;;;;;;;5057457;28;20176;-80
2021/05/29 01:32:45;;;;;;;16.20;14.50;;;;;;;;;;5057193;28;20175;-80
2021/05/29 01:35:11;;;;;;;15.03;13.43;;;;;;;;;;5057198;28;20196;-80
2021/05/29 01:37:37;;;;;;;16.00;14.30;;;;;;;;;;5057602;28;20183;-80
2021/05/29 01:40:03;;;;;;;16.23;14.23;;;;;;;;;;5057086;28;20529;-80
2021/05/29 01:42:30;;;;;;;17.00;13.87;;;;;;;;;;5057300;28;20599;-81
2021/05/29 01:44:56;;;;;;;15.80;14.20;;;;;;;;;;5057069;28;20172;-81
2021/05/29 01:47:21;;;;;;;15.97;14.37;;;;;;;;;;5056727;28;20655;-81
2021/05/29 01:49:46;;;;;;;15.40;13.80;;;;;;;;;;5057257;28;20168;-81
2021/05/29 01:52:12;;;;;;;15.03;13.50;;;;;;;;;;5056915;28;20618;-81
2021/05/29 01:54:37;;;;;;;15.90;14.30;;;;;;;;;;5057328;28;20168;-81
2021/05/29 01:57:03;;;;;;;15.67;14.07;;;;;;;;;;5056780;28;20176;-81
2021/05/29 01:59:28;;;;;;;15.97;14.40;;;;;;;;;;5057588;28;20247;-80
2021/05/29 02:01:54;;;;;;;16.97;14.77;;;;;;;;;;5056432;28;20174;-81
2021/05/29 02:04:19;;;;;;;17.17;15.37;;;;;;;;;;5056786;28;20624;-81
2021/05/29 02:06:44;;;;;;;18.57;16.63;;;;;;;;;;5056908;28;20215;-81
2021/05/29 02:09:09;;;;;;;19.00;16.87;;;;;;;;;;5056294;28;20191;-81
2021/05/29 02:11:36;;;;;;;21.07;17.27;;;;;;;;;;5056811;28;20558;-80
2021/05/29 02:14:02;;;;;;;19.47;16.50;;;;;;;;;;5056738;28;20258;-80
2021/05/29 02:16:27;;;;;;;21.20;16.50;;;;;;;;;;5056431;28;20595;-81
2021/05/29 02:18:52;;;;;;;17.53;15.73;;;;;;;;;;5054620;28;20199;-81
2021/05/29 02:21:18;;;;;;;16.87;14.67;;;;;;;;;;5056360;28;20168;-81
2021/05/29 02:23:48;;;;;;;16.10;14.40;;;;;;;;;;5056087;28;20576;-80
2021/05/29 02:26:16;;;;;;;15.97;14.27;;;;;;;;;;5056218;28;20728;-81
2021/05/29 02:28:43;;;;;;;15.37;13.77;;;;;;;;;;5056255;28;20167;-81
2021/05/29 02:31:09;;;;;;;14.80;13.27;;;;;;;;;;5056140;28;20259;-81
2021/05/29 02:33:35;;;;;;;14.33;12.90;;;;;;;;;;5056466;28;20187;-81
2021/05/29 02:36:02;;;;;;;14.20;12.70;;;;;;;;;;5055790;28;20634;-81
2021/05/29 02:38:28;;;;;;;15.63;12.93;;;;;;;;;;5055686;28;20251;-81
2021/05/29 02:40:57;;;;;;;14.60;13.20;;;;;;;;;;5055961;28;20172;-81
2021/05/29 02:43:23;;;;;;;15.33;13.70;;;;;;;;;;5055725;28;20172;-81
2021/05/29 02:45:48;;;;;;;14.80;13.30;;;;;;;;;;5055751;28;20174;-81
2021/05/29 02:48:14;;;;;;;14.93;12.83;;;;;;;;;;5055644;28;20279;-81
2021/05/29 02:50:41;;;;;;;14.63;13.23;;;;;;;;;;5055801;28;20179;-81
2021/05/29 02:53:07;;;;;;;15.20;13.70;;;;;;;;;;5055415;28;20204;-81
2021/05/29 02:55:33;;;;;;;14.87;13.37;;;;;;;;;;5055761;28;20256;-81
2021/05/29 02:57:59;;;;;;;15.50;13.83;;;;;;;;;;5055933;28;20175;-81
2021/05/29 03:00:26;;;;;;;14.77;13.33;;;;;;;;;;5055388;28;20196;-81
2021/05/29 03:02:51;;;;;;;14.57;13.07;;;;;;;;;;5054562;28;20589;-81
2021/05/29 03:05:17;;;;;;;15.10;13.60;;;;;;;;;;5055749;28;20168;-81
2021/05/29 03:07:45;;;;;;;16.43;14.73;;;;;;;;;;5054211;28;20602;-81
2021/05/29 03:10:10;;;;;;;16.20;14.17;;;;;;;;;;5055649;28;20183;-81
2021/05/29 03:12:37;;;;;;;15.93;14.23;;;;;;;;;;5055396;28;20168;-82
2021/05/29 03:15:04;;;;;;;16.47;14.77;;;;;;;;;;5055001;28;20179;-81
2021/05/29 03:17:29;;;;;;;17.17;15.47;;;;;;;;;;5055396;28;20653;-82
2021/05/29 03:19:54;;;;;;;16.40;14.90;;;;;;;;;;5055387;28;20175;-81
2021/05/29 03:22:20;;;;;;;16.93;15.20;;;;;;;;;;5054915;28;20627;-81
2021/05/29 03:24:45;;;;;;;17.03;15.33;;;;;;;;;;5055144;28;20297;-81
2021/05/29 03:27:16;;;;;;;16.63;14.93;;;;;;;;;;5054726;28;20226;-81
2021/05/29 03:29:41;;;;;;;16.27;14.67;;;;;;;;;;5055487;28;20523;-81
2021/05/29 03:32:06;;;;;;;17.53;15.70;;;;;;;;;;5052888;28;20176;-81
2021/05/29 03:34:32;;;;;;;16.57;14.87;;;;;;;;;;5054849;28;20184;-80
2021/05/29 03:36:57;;;;;;;17.03;15.23;;;;;;;;;;5055520;28;20233;-80
2021/05/29 03:39:23;;;;;;;16.93;15.23;;;;;;;;;;5055613;28;20617;-80
2021/05/29 03:41:48;;;;;;;15.93;14.33;;;;;;;;;;5054644;28;20168;-80
2021/05/29 03:44:13;;;;;;;17.10;14.80;;;;;;;;;;5054986;28;20168;-80
2021/05/29 03:46:38;;;;;;;20.97;19.03;;;;;;;;;;5054268;28;20228;-81
2021/05/29 03:49:04;;;;;;;17.23;15.43;;;;;;;;;;5054923;28;20168;-81
2021/05/29 03:51:29;;;;;;;16.20;14.60;;;;;;;;;;5054385;28;20179;-81
2021/05/29 03:53:54;;;;;;;38.20;34.70;;;;;;;;;;5054562;28;20190;-81
2021/05/29 03:56:20;;;;;;;20.73;18.73;;;;;;;;;;5055155;28;20623;-81
2021/05/29 03:58:45;;;;;;;16.87;15.17;;;;;;;;;;5054291;28;20175;-81
2021/05/29 04:01:10;;;;;;;16.53;14.93;;;;;;;;;;5054296;28;20168;-81
2021/05/29 04:03:36;;;;;;;16.40;14.80;;;;;;;;;;5054167;28;20172;-81
2021/05/29 04:06:01;;;;;;;16.60;15.10;;;;;;;;;;5054818;28;20176;-81
2021/05/29 04:08:26;;;;;;;20.43;18.40;;;;;;;;;;5054339;28;20168;-81
2021/05/29 04:10:52;;;;;;;18.97;17.07;;;;;;;;;;5054574;28;20164;-81
2021/05/29 04:13:17;;;;;;;21.10;16.27;;;;;;;;;;5054589;28;20164;-81
2021/05/29 04:15:43;;;;;;;17.13;15.50;;;;;;;;;;5054031;28;20573;-81
2021/05/29 04:18:08;;;;;;;17.03;15.40;;;;;;;;;;5054466;28;20176;-81
2021/05/29 04:20:34;;;;;;;18.30;16.40;;;;;;;;;;5053796;28;20164;-81
2021/05/29 04:22:59;;;;;;;17.83;16.03;;;;;;;;;;5054117;28;20163;-81
2021/05/29 04:25:28;;;;;;;17.33;15.60;;;;;;;;;;5054102;28;20524;-81
2021/05/29 04:27:53;;;;;;;18.70;16.70;;;;;;;;;;5054249;28;20214;-81
2021/05/29 04:30:20;;;;;;;18.30;16.60;;;;;;;;;;5054044;28;20538;-81
2021/05/29 04:32:46;;;;;;;17.23;15.63;;;;;;;;;;5054418;28;20168;-81
2021/05/29 04:35:12;;;;;;;17.30;15.60;;;;;;;;;;5054254;28;20179;-81
2021/05/29 04:37:38;;;;;;;17.47;15.67;;;;;;;;;;5053939;28;20179;-81
2021/05/29 04:40:04;;;;;;;16.33;14.73;;;;;;;;;;5054116;28;20168;-81
2021/05/29 04:42:30;;;;;;;16.17;14.53;;;;;;;;;;5053747;28;20230;-81
2021/05/29 04:44:55;;;;;;;16.33;14.83;;;;;;;;;;5053800;28;20168;-81
2021/05/29 04:47:21;;;;;;;15.80;14.30;;;;;;;;;;5052176;28;20713;-81
2021/05/29 04:49:46;;;;;;;15.07;13.63;;;;;;;;;;5053601;28;20199;-81
2021/05/29 04:52:11;;;;;;;15.83;14.33;;;;;;;;;;5053917;28;20168;-81
2021/05/29 04:54:39;;;;;;;15.33;13.83;;;;;;;;;;5053470;28;20175;-81
2021/05/29 04:57:04;;;;;;;15.27;13.97;;;;;;;;;;5053996;28;20184;-81
2021/05/29 04:59:30;;;;;;;14.30;12.90;;;;;;;;;;5053673;28;20262;-81
2021/05/29 05:01:55;;;;;;;14.27;12.87;;;;;;;;;;5053353;28;20179;-81
2021/05/29 05:04:20;;;;;;;13.03;11.93;;;;;;;;;;5054175;28;20170;-80
2021/05/29 05:06:46;;;;;;;13.33;12.03;;;;;;;;;;5053580;28;20207;-79
2021/05/29 05:09:11;;;;;;;12.47;11.33;;;;;;;;;;5053694;28;20259;-79
2021/05/29 05:11:36;;;;;;;12.33;11.23;;;;;;;;;;5053683;28;20530;-81
2021/05/29 05:14:05;;;;;;;11.73;10.73;;;;;;;;;;5054182;28;20493;-82
2021/05/29 05:16:30;;;;;;;12.57;11.57;;;;;;;;;;5054318;28;20180;-82
2021/05/29 05:18:56;;;;;;;13.20;12.10;;;;;;;;;;5053581;28;20695;-81
2021/05/29 05:21:21;;;;;;;12.97;11.77;;;;;;;;;;5053483;28;20168;-81
2021/05/29 05:23:50;;;;;;;13.33;12.23;;;;;;;;;;5053146;28;20172;-81
2021/05/29 05:26:15;;;;;;;13.07;11.73;;;;;;;;;;5053609;28;20515;-81
2021/05/29 05:28:40;;;;;;;12.97;11.87;;;;;;;;;;5053383;28;20168;-82
2021/05/29 05:31:06;;;;;;;13.00;11.90;;;;;;;;;;5053382;28;20179;-82
2021/05/29 05:33:34;;;;;;;12.40;11.40;;;;;;;;;;5053464;28;20192;-83
2021/05/29 05:36:00;;;;;;;11.70;10.70;;;;;;;;;;5052180;28;20507;-82
2021/05/29 05:38:25;;;;;;;12.23;11.17;;;;;;;;;;5053065;28;20172;-82
2021/05/29 05:40:52;;;;;;;11.87;10.90;;;;;;;;;;5053306;28;20195;-81
2021/05/29 05:43:17;;;;;;;12.90;11.80;;;;;;;;;;5052989;28;20202;-82
2021/05/29 05:45:43;;;;;;;11.93;10.93;;;;;;;;;;5052663;28;20225;-82
2021/05/29 05:48:08;;;;;;;11.97;11.07;;;;;;;;;;5052895;28;20207;-82
2021/05/29 05:50:33;;;;;;;11.80;10.80;;;;;;;;;;5053530;28;20183;-82
2021/05/29 05:52:59;;;;;;;11.43;10.47;;;;;;;;;;5052959;28;20611;-82
2021/05/29 05:55:24;;;;;;;11.83;10.83;;;;;;;;;;5056322;28;20168;-83
2021/05/29 05:57:50;;;;;;;12.53;11.43;;;;;;;;;;5056726;28;20696;-83
2021/05/29 06:00:16;;;;;;;12.37;11.30;;;;;;;;;;5056534;28;20177;-83
2021/05/29 06:02:46;;;;;;;13.13;11.80;;;;;;;;;;5055447;28;20645;-82
2021/05/29 06:05:13;;;;;;;11.63;10.73;;;;;;;;;;5055366;28;20262;-83
2021/05/29 06:07:38;;;;;;;12.30;11.20;;;;;;;;;;5056815;28;20274;-83
2021/05/29 06:10:04;;;;;;;11.47;10.37;;;;;;;;;;5056382;28;20168;-83
2021/05/29 06:12:31;;;;;;;11.77;10.67;;;;;;;;;;5056338;28;20168;-83
2021/05/29 06:20:24;;;;;;;11.83;10.60;;;;;;;;;;5056439;28;20618;-83
2021/05/29 06:22:49;;;;;;;11.90;11.00;;;;;;;;;;5056578;28;20172;-83
2021/05/29 06:25:15;;;;;;;12.47;11.40;;;;;;;;;;5056520;28;20628;-83
2021/05/29 06:27:41;;;;;;;10.90;10.00;;;;;;;;;;5056180;28;20206;-83
2021/05/29 06:30:07;;;;;;;11.23;10.33;;;;;;;;;;5056156;28;20168;-83
2021/05/29 06:32:32;;;;;;;10.13;9.33;;;;;;;;;;5055697;28;20615;-81
2021/05/29 06:34:58;;;;;;;11.47;10.57;;;;;;;;;;5054750;28;20199;-81
2021/05/29 06:37:23;;;;;;;10.98;10.07;;;;;;;;;;5056408;28;20218;-81
2021/05/29 06:39:48;;;;;;;9.43;8.73;;;;;;;;;;5056092;28;20196;-81
2021/05/29 06:42:14;;;;;;;7.65;7.10;;;;;;;;;;5055999;28;20179;-81
2021/05/29 06:44:40;;;;;;;8.23;7.60;;;;;;;;;;5055188;28;20180;-81
2021/05/29 06:47:05;;;;;;;7.57;6.90;;;;;;;;;;5055498;28;20231;-81
2021/05/29 06:49:31;;;;;;;7.22;6.70;;;;;;;;;;5056075;28;20241;-81
2021/05/29 06:52:03;;;;;;;6.88;6.28;;;;;;;;;;5055512;28;20212;-81
2021/05/29 06:59:40;;;;;;;5.45;5.07;;;;;;;;;;5055446;28;20218;-82
2021/05/29 07:02:06;;;;;;;5.03;4.63;;;;;;;;;;5055429;28;20630;-82
2021/05/29 07:04:31;;;;;;;5.63;5.22;;;;;;;;;;5055890;28;20171;-82
2021/05/29 07:06:56;;;;;;;5.32;4.93;;;;;;;;;;5055758;28;20218;-82
2021/05/29 07:09:22;;;;;;;5.80;5.40;;;;;;;;;;5055727;28;20653;-82
2021/05/29 07:11:47;;;;;;;5.00;4.70;;;;;;;;;;5055607;28;20164;-82
2021/05/29 07:14:13;;;;;;;6.10;5.60;;;;;;;;;;5055574;28;20168;-82
2021/05/29 07:16:38;;;;;;;5.75;5.35;;;;;;;;;;5055501;28;20259;-82
2021/05/29 07:19:04;;;;;;;6.20;5.70;;;;;;;;;;5054952;28;20226;-81
2021/05/29 07:21:29;;;;;;;6.75;6.25;;;;;;;;;;5055507;28;20167;-81
2021/05/29 07:23:55;;;;;;;6.50;6.00;;;;;;;;;;5055813;28;20540;-82
2021/05/29 07:26:20;;;;;;;6.07;5.65;;;;;;;;;;5053932;28;20254;-82
2021/05/29 07:28:46;;;;;;;5.85;5.38;;;;;;;;;;5055243;28;20174;-82
2021/05/29 07:31:11;;;;;;;5.93;5.53;;;;;;;;;;5053814;28;20274;-82
2021/05/29 07:33:37;;;;;;;6.28;5.78;;;;;;;;;;5054883;28;20200;-82
2021/05/29 07:36:02;;;;;;;6.85;5.65;;;;;;;;;;5055212;28;20164;-82
2021/05/29 07:38:27;;;;;;;5.88;5.38;;;;;;;;;;5053642;28;20653;-82
2021/05/29 07:40:53;;;;;;;5.43;4.97;;;;;;;;;;5052858;28;20184;-81
2021/05/29 07:43:18;;;;;;;6.10;5.55;;;;;;;;;;5053581;28;20180;-82
2021/05/29 07:45:44;;;;;;;5.15;4.75;;;;;;;;;;5054418;28;20254;-82
2021/05/29 07:48:09;;;;;;;5.00;4.55;;;;;;;;;;5054653;28;20191;-82
2021/05/29 07:50:35;;;;;;;4.47;4.18;;;;;;;;;;5054937;28;20183;-82
2021/05/29 07:53:03;;;;;;;5.20;4.70;;;;;;;;;;5054888;28;20167;-82
2021/05/29 07:55:29;;;;;;;5.55;4.20;;;;;;;;;;5054842;28;20175;-83
2021/05/29 07:57:54;;;;;;;4.60;4.30;;;;;;;;;;5054344;28;20179;-82
2021/05/29 08:00:25;;;;;;;4.55;4.15;;;;;;;;;;5052928;28;20172;-82
2021/05/29 08:02:50;;;;;;;4.43;4.13;;;;;;;;;;5045235;28;20174;-85
2021/05/29 08:05:20;;;;;;;4.72;4.28;;;;;;;;;;5053880;28;20171;-83
2021/05/29 08:07:45;;;;;;;4.60;3.80;;;;;;;;;;5054393;28;20199;-84
2021/05/29 08:10:12;;;;;;;4.13;3.83;;;;;;;;;;5054438;28;20209;-84
2021/05/29 08:12:37;;;;;;;4.57;3.72;;;;;;;;;;5054039;28;20214;-84
2021/05/29 08:15:04;;;;;;;3.88;3.58;;;;;;;;;;5054163;28;20199;-84
2021/05/29 08:17:29;;;;;;;4.13;3.85;;;;;;;;;;5053986;28;20199;-83
2021/05/29 08:19:55;;;;;;;4.32;3.95;;;;;;;;;;5054402;28;20564;-81
2021/05/29 08:22:20;;;;;;;4.00;3.80;;;;;;;;;;5053470;28;20630;-81
2021/05/29 08:24:45;;;;;;;3.85;3.65;;;;;;;;;;5054059;28;20196;-81
2021/05/29 08:27:11;;;;;;;4.00;3.70;;;;;;;;;;5053753;28;20651;-83
2021/05/29 08:29:36;;;;;;;3.80;3.50;;;;;;;;;;5054061;28;20642;-82
2021/05/29 08:32:01;;;;;;;3.80;3.42;;;;;;;;;;5053294;28;20251;-82
2021/05/29 08:34:27;;;;;;;3.70;3.50;;;;;;;;;;5053910;28;20191;-81
2021/05/29 08:36:52;;;;;;;3.83;3.53;;;;;;;;;;5053581;28;20183;-81
2021/05/29 08:39:17;;;;;;;3.60;3.30;;;;;;;;;;5053786;28;20175;-81
2021/05/29 08:41:43;;;;;;;3.83;3.47;;;;;;;;;;5053569;28;20583;-81
2021/05/29 08:44:09;;;;;;;3.90;3.60;;;;;;;;;;5053427;28;20168;-81
2021/05/29 08:46:35;;;;;;;3.92;3.63;;;;;;;;;;5053604;28;20254;-81
2021/05/29 08:49:00;;;;;;;3.85;3.55;;;;;;;;;;5052769;28;20179;-81
2021/05/29 08:51:26;;;;;;;3.30;3.10;;;;;;;;;;5053626;28;20525;-81
2021/05/29 08:53:53;;;;;;;4.15;3.78;;;;;;;;;;5053737;28;20226;-81
2021/05/29 08:56:19;;;;;;;4.10;3.75;;;;;;;;;;5053837;28;20627;-81
2021/05/29 08:58:45;;;;;;;3.80;3.55;;;;;;;;;;5053574;28;20172;-81
2021/05/29 09:01:11;;;;;;;4.10;3.80;;;;;;;;;;5053285;28;20221;-81
2021/05/29 09:03:55;;;;;;;3.92;3.63;;;;;;;;;;5053503;28;20626;-81
2021/05/29 09:06:24;;;;;;;4.50;4.20;;;;;;;;;;5053185;28;20166;-81
2021/05/29 09:08:50;;;;;;;4.13;3.83;;;;;;;;;;5053191;28;20171;-81
2021/05/29 09:11:35;;;;;;;4.13;3.83;;;;;;;;;;5053520;28;20176;-82
2021/05/29 09:14:00;;;;;;;4.40;4.00;;;;;;;;;;5053588;28;20156;-81
2021/05/29 09:16:25;;;;;;;4.30;4.00;;;;;;;;;;5053177;28;20168;-81
2021/05/29 09:18:51;;;;;;;6.83;4.40;;;;;;;;;;5052196;28;20168;-82
2021/05/29 09:21:20;;;;;;;4.40;4.10;;;;;;;;;;5051742;28;20172;-81
2021/05/29 09:23:53;;;;;;;4.47;4.03;;;;;;;;;;5051723;28;20172;-81
2021/05/29 09:26:22;;;;;;;4.10;3.80;;;;;;;;;;5052370;28;20164;-81
2021/05/29 09:28:48;;;;;;;3.90;3.70;;;;;;;;;;5048459;28;20194;-81
2021/05/29 09:31:14;;;;;;;5.38;4.30;;;;;;;;;;5047609;28;20191;-81
2021/05/29 09:33:40;;;;;;;4.72;4.35;;;;;;;;;;5041725;28;20291;-81
2021/05/29 09:36:09;;;;;;;4.93;4.28;;;;;;;;;;5035378;28;20503;-81
2021/05/29 09:38:37;;;;;;;4.60;4.28;;;;;;;;;;5055306;28;20517;-80
2021/05/29 09:41:03;;;;;;;6.35;4.40;;;;;;;;;;5051387;28;20203;-81
2021/05/29 09:43:28;;;;;;;5.03;4.63;;;;;;;;;;5044223;28;20180;-81
2021/05/29 09:45:57;;;;;;;5.10;4.60;;;;;;;;;;5067972;28;21365;-80
2021/05/29 09:48:23;;;;;;;5.13;4.73;;;;;;;;;;5055530;28;20219;-80
2021/05/29 09:50:59;;;;;;;6.03;5.00;;;;;;;;;;5056685;28;20176;-80
2021/05/29 09:53:25;;;;;;;4.47;4.10;;;;;;;;;;5056396;28;20522;-80
2021/05/29 09:55:51;;;;;;;4.70;4.30;;;;;;;;;;5056873;28;20178;-80
2021/05/29 09:58:16;;;;;;;4.27;3.97;;;;;;;;;;5056376;28;20176;-80
2021/05/29 10:00:43;;;;;;;4.50;4.17;;;;;;;;;;5056418;28;20175;-80
2021/05/29 10:03:08;;;;;;;4.90;4.50;;;;;;;;;;5056718;28;20270;-80
2021/05/29 10:05:37;;;;;;;6.13;5.63;;;;;;;;;;5055289;28;20645;-81
2021/05/29 10:08:03;;;;;;;5.20;4.70;;;;;;;;;;5056171;28;20286;-80
2021/05/29 10:10:29;;;;;;;7.17;6.50;;;;;;;;;;5056497;28;20655;-81
2021/05/29 10:12:54;;;;;;;8.00;4.60;;;;;;;;;;5056404;28;20178;-81
2021/05/29 10:15:20;;;;;;;5.43;5.03;;;;;;;;;;5056399;28;20168;-81
2021/05/29 10:17:46;;;;;;;8.20;7.40;;;;;;;;;;5055488;28;20182;-81
2021/05/29 10:20:12;;;;;;;5.70;5.20;;;;;;;;;;5056133;28;20226;-83
2021/05/29 10:22:37;;;;;;;4.70;4.30;;;;;;;;;;5055902;28;20573;-82
2021/05/29 10:25:05;;;;;;;5.83;5.07;;;;;;;;;;5055910;28;20191;-82
2021/05/29 10:27:30;;;;;;;5.37;4.93;;;;;;;;;;5056043;28;20614;-83
2021/05/29 10:29:58;;;;;;;6.47;4.80;;;;;;;;;;5054819;28;20218;-83
2021/05/29 10:32:24;;;;;;;6.87;5.97;;;;;;;;;;5055127;28;20690;-81
2021/05/29 10:34:49;;;;;;;4.67;4.23;;;;;;;;;;5055664;28;20224;-80
2021/05/29 10:37:25;;;;;;;4.70;4.30;;;;;;;;;;5056130;28;20252;-80
2021/05/29 10:39:50;;;;;;;4.87;4.40;;;;;;;;;;5055338;28;20274;-81
2021/05/29 10:42:27;;;;;;;4.63;4.30;;;;;;;;;;5056054;28;20176;-80
2021/05/29 10:45:11;;;;;;;5.20;4.70;;;;;;;;;;5055864;28;20167;-81
2021/05/29 10:47:38;;;;;;;4.73;4.33;;;;;;;;;;5056072;28;20227;-81
2021/05/29 10:50:03;;;;;;;5.50;4.67;;;;;;;;;;5056139;28;20211;-81
2021/05/29 10:52:41;;;;;;;5.67;5.20;;;;;;;;;;5054365;28;20214;-81
2021/05/29 10:55:10;;;;;;;5.20;4.77;;;;;;;;;;5055004;28;20550;-81
2021/05/29 10:57:54;;;;;;;5.53;5.03;;;;;;;;;;5055889;28;20218;-81
2021/05/29 11:00:41;;;;;;;8.80;5.90;;;;;;;;;;5055668;28;20211;-81
2021/05/29 11:03:15;;;;;;;11.43;6.10;;;;;;;;;;5054182;28;20642;-82
2021/05/29 11:05:41;;;;;;;8.63;5.80;;;;;;;;;;5055591;28;20173;-81
2021/05/29 11:08:25;;;;;;;6.60;6.00;;;;;;;;;;5055022;28;20199;-81
2021/05/29 11:10:50;;;;;;;5.70;5.20;;;;;;;;;;5035489;28;20177;-82
2021/05/29 11:13:15;;;;;;;8.40;5.60;;;;;;;;;;5035408;28;20526;-82
2021/05/29 11:15:58;;;;;;;5.57;5.10;;;;;;;;;;5035875;28;20195;-82
2021/05/29 11:18:23;;;;;;;7.10;6.40;;;;;;;;;;5035633;28;20183;-81
2021/05/29 11:21:05;;;;;;;6.90;6.20;;;;;;;;;;5035406;28;20177;-81
2021/05/29 11:23:30;;;;;;;5.37;4.87;;;;;;;;;;5035134;28;20173;-85
2021/05/29 11:25:55;;;;;;;7.17;4.93;;;;;;;;;;5034870;28;20171;-82
2021/05/29 11:28:21;;;;;;;5.63;5.13;;;;;;;;;;5034720;28;20237;-81
2021/05/29 11:30:47;;;;;;;7.13;5.30;;;;;;;;;;5035325;28;20619;-81
2021/05/29 11:33:12;;;;;;;5.93;4.90;;;;;;;;;;5034534;28;20172;-81
2021/05/29 11:35:38;;;;;;;5.10;4.70;;;;;;;;;;5034709;28;20176;-81
2021/05/29 11:38:20;;;;;;;5.77;4.83;;;;;;;;;;5050857;28;20290;-82
2021/05/29 11:40:46;;;;;;;5.27;4.87;;;;;;;;;;5051690;28;20184;-82
2021/05/29 11:43:13;;;;;;;7.23;5.03;;;;;;;;;;5047919;28;20173;-82
2021/05/29 11:45:39;;;;;;;5.10;4.70;;;;;;;;;;5044712;28;20255;-82
2021/05/29 11:48:08;;;;;;;7.73;5.57;;;;;;;;;;5041286;28;20350;-82
2021/05/29 11:50:34;;;;;;;4.90;4.60;;;;;;;;;;5042479;28;20512;-82
2021/05/29 11:52:59;;;;;;;5.70;5.20;;;;;;;;;;5045977;28;20179;-81
2021/05/29 11:55:24;;;;;;;6.17;5.57;;;;;;;;;;5041259;28;20635;-82
2021/05/29 11:58:00;;;;;;;6.40;5.60;;;;;;;;;;5043342;28;20171;-82
2021/05/29 12:00:26;;;;;;;6.03;5.43;;;;;;;;;;5051375;28;20256;-82
2021/05/29 12:02:51;;;;;;;5.07;4.60;;;;;;;;;;5053679;28;20203;-82
2021/05/29 12:05:18;;;;;;;4.70;4.30;;;;;;;;;;5054330;28;20183;-81
2021/05/29 12:08:03;;;;;;;5.47;5.00;;;;;;;;;;5053890;28;20223;-81
2021/05/29 12:10:48;;;;;;;6.80;5.03;;;;;;;;;;5053999;28;20242;-81
2021/05/29 12:13:29;;;;;;;7.73;4.83;;;;;;;;;;5054100;28;20313;-80
2021/05/29 12:15:59;;;;;;;9.20;5.80;;;;;;;;;;5054141;28;20172;-81
2021/05/29 12:18:25;;;;;;;6.07;5.57;;;;;;;;;;5053884;28;20218;-81
2021/05/29 12:20:54;;;;;;;8.13;6.00;;;;;;;;;;5053787;28;20179;-81
2021/05/29 12:23:20;;;;;;;6.40;5.80;;;;;;;;;;5053890;28;20172;-82
2021/05/29 12:25:45;;;;;;;6.47;5.77;;;;;;;;;;5053592;28;20171;-81
2021/05/29 12:28:11;;;;;;;5.90;5.40;;;;;;;;;;5053734;28;20204;-81
2021/05/29 12:30:36;;;;;;;5.80;5.30;;;;;;;;;;5053936;28;20172;-81
2021/05/29 12:33:16;;;;;;;5.20;4.80;;;;;;;;;;5053949;28;20168;-81
2021/05/29 12:35:42;;;;;;;8.63;7.83;;;;;;;;;;5053976;28;20172;-81
2021/05/29 12:38:18;;;;;;;8.97;7.80;;;;;;;;;;5053349;28;20182;-82
2021/05/29 12:41:10;;;;;;;6.03;5.50;;;;;;;;;;5053581;28;20171;-82
2021/05/29 12:43:36;;;;;;;6.80;6.20;;;;;;;;;;5053332;28;20160;-82
2021/05/29 12:46:02;;;;;;;6.07;5.40;;;;;;;;;;5053876;28;20554;-82
2021/05/29 12:48:27;;;;;;;10.23;8.23;;;;;;;;;;5053518;28;20646;-82
2021/05/29 12:51:08;;;;;;;16.43;14.37;;;;;;;;;;5053811;28;20261;-82
2021/05/29 12:53:36;;;;;;;36.27;27.07;;;;;;;;;;5053559;28;20156;-81
2021/05/29 12:56:12;;;;;;;12.47;10.73;;;;;;;;;;5053675;28;20190;-81
2021/05/29 12:58:38;;;;;;;5.67;5.17;;;;;;;;;;5053650;28;20266;-81
2021/05/29 13:12:07;;;;;;;6.43;4.80;;;;;;;;;;5057329;28;20214;-82
2021/05/29 13:14:32;;;;;;;5.07;4.43;;;;;;;;;;5057829;28;20190;-82
2021/05/29 13:16:59;;;;;;;4.80;4.40;;;;;;;;;;5057498;28;20175;-82
2021/05/29 13:19:28;;;;;;;5.00;4.60;;;;;;;;;;5057619;28;20183;-82
2021/05/29 13:22:00;;;;;;;5.47;4.97;;;;;;;;;;5057521;28;20206;-82
2021/05/29 13:24:44;;;;;;;5.07;4.73;;;;;;;;;;5055930;28;20611;-82
2021/05/29 13:27:12;;;;;;;5.77;4.63;;;;;;;;;;5046167;28;20203;-82
2021/05/29 13:29:37;;;;;;;4.77;4.37;;;;;;;;;;5047634;28;20271;-82
2021/05/29 13:32:03;;;;;;;4.63;4.30;;;;;;;;;;5043347;28;20366;-83
2021/05/29 13:34:29;;;;;;;4.70;4.40;;;;;;;;;;5038533;28;20219;-82
2021/05/29 13:36:55;;;;;;;6.47;5.03;;;;;;;;;;5053187;28;20223;-82
2021/05/29 13:39:20;;;;;;;4.57;4.17;;;;;;;;;;5056985;28;20168;-82
2021/05/29 13:41:46;;;;;;;4.70;4.40;;;;;;;;;;5057149;28;20542;-82
2021/05/29 13:44:11;;;;;;;4.60;4.20;;;;;;;;;;5057034;28;20503;-82
2021/05/29 13:46:36;;;;;;;5.37;4.97;;;;;;;;;;5058398;28;20617;-82
2021/05/29 13:49:02;;;;;;;5.57;5.17;;;;;;;;;;5076712;28;20552;-82
2021/05/29 13:51:30;;;;;;;12.73;11.73;;;;;;;;;;5076346;28;20593;-82
2021/05/29 13:53:57;;;;;;;31.93;29.03;;;;;;;;;;5076730;28;20199;-83
2021/05/29 13:56:23;;;;;;;60.57;55.20;;;;;;;;;;5058365;28;20184;-83
2021/05/29 13:58:49;;;;;;;12.00;11.00;;;;;;;;;;5047811;28;20500;-84
2021/05/29 14:01:14;;;;;;;7.57;6.93;;;;;;;;;;5047648;28;20184;-84
2021/05/29 14:03:40;;;;;;;6.93;6.20;;;;;;;;;;5051163;28;20504;-84
2021/05/29 14:06:05;;;;;;;5.60;5.10;;;;;;;;;;5051675;28;20180;-83
2021/05/29 14:08:31;;;;;;;6.57;6.00;;;;;;;;;;5049025;28;20208;-84
2021/05/29 14:10:56;;;;;;;7.67;6.97;;;;;;;;;;5052723;28;20176;-84
2021/05/29 14:13:21;;;;;;;13.20;11.60;;;;;;;;;;5054578;28;20267;-84
2021/05/29 14:15:49;;;;;;;5.50;5.10;;;;;;;;;;5055282;28;20203;-84
2021/05/29 14:18:14;;;;;;;7.27;5.80;;;;;;;;;;5056099;28;20232;-84
2021/05/29 14:20:39;;;;;;;6.00;5.50;;;;;;;;;;5056431;28;20176;-84
2021/05/29 14:23:05;;;;;;;5.90;5.40;;;;;;;;;;5055897;28;20171;-84
2021/05/29 14:25:30;;;;;;;6.03;5.33;;;;;;;;;;5056305;28;20234;-84
2021/05/29 14:27:55;;;;;;;12.33;7.97;;;;;;;;;;5056130;28;20198;-84
2021/05/29 14:30:21;;;;;;;5.40;4.90;;;;;;;;;;5055926;28;20515;-84
2021/05/29 14:32:46;;;;;;;6.70;4.20;;;;;;;;;;5055671;28;20617;-84
2021/05/29 14:35:12;;;;;;;4.27;3.60;;;;;;;;;;5052402;28;20566;-83
2021/05/29 14:37:39;;;;;;;5.13;4.20;;;;;;;;;;5042066;28;20230;-82
2021/05/29 14:40:05;;;;;;;4.50;4.10;;;;;;;;;;5035908;28;20180;-82
2021/05/29 14:42:33;;;;;;;4.23;3.87;;;;;;;;;;5035935;28;20179;-82
2021/05/29 14:45:03;;;;;;;5.33;4.80;;;;;;;;;;5038325;28;20168;-83
2021/05/29 14:47:28;;;;;;;4.97;4.00;;;;;;;;;;5055556;28;20611;-83
2021/05/29 14:49:54;;;;;;;4.45;4.15;;;;;;;;;;5061715;28;20252;-83